createdAt,value
2017-09-24T12:34:00.710Z,7.93
2017-09-24T12:35:06.717Z,7.43
2017-09-24T12:36:10.812Z,6.05
2017-09-24T12:37:16.739Z,7.03
2017-09-24T12:38:20.548Z,7.45
2017-09-24T12:39:24.551Z,6.57
2017-09-24T12:40:28.477Z,7.45
2017-09-24T12:41:33.442Z,5.97
2017-09-24T12:42:37.942Z,6.47
2017-09-24T12:43:41.787Z,5.72
2017-09-24T12:44:46.701Z,5.47
2017-09-24T12:45:51.104Z,6.10
2017-09-24T12:51:07.826Z,6.03
2017-09-24T12:52:13.421Z,6.53
2017-09-24T12:53:18.114Z,6.05
2017-09-24T12:54:23.207Z,6.18
2017-09-24T12:55:27.359Z,5.93
2017-09-24T12:56:30.815Z,5.55
2017-09-24T12:57:36.203Z,5.53
2017-09-24T12:58:40.045Z,5.50
2017-09-24T12:59:45.208Z,6.00
2017-09-24T13:00:50.485Z,4.97
2017-09-24T13:01:55.102Z,5.70
2017-09-24T13:02:58.898Z,13.77
2017-09-24T13:04:03.410Z,13.85
2017-09-24T13:05:08.389Z,13.77
2017-09-24T13:06:14.797Z,13.25
2017-09-24T13:07:20.206Z,1.83
2017-09-24T13:08:24.473Z,5.55
2017-09-24T13:09:28.527Z,5.43
2017-09-24T13:10:33.866Z,10.40
2017-09-24T13:11:38.296Z,13.30
2017-09-24T13:12:42.211Z,13.23
2017-09-24T13:13:47.106Z,13.27
2017-09-24T13:14:51.863Z,14.48
2017-09-24T13:15:56.472Z,13.68
2017-09-24T13:17:01.815Z,13.50
2017-09-24T13:18:06.669Z,13.00
2017-09-24T13:19:11.741Z,13.40
2017-09-24T13:20:18.062Z,13.35
2017-09-24T13:21:21.866Z,11.90
2017-09-24T13:22:26.252Z,8.18
2017-09-24T13:23:30.681Z,6.80
2017-09-24T13:24:34.641Z,6.30
2017-09-24T13:25:39.092Z,8.68
2017-09-24T13:26:43.700Z,7.85
2017-09-24T13:27:48.991Z,7.82
2017-09-24T13:28:53.492Z,7.55
2017-09-24T13:29:58.783Z,7.82
2017-09-24T13:31:03.595Z,7.07
2017-09-24T13:32:07.663Z,8.43
2017-09-24T13:34:28.143Z,6.70
2017-09-24T13:35:33.949Z,6.15
2017-09-24T13:36:38.243Z,6.53
2017-09-24T13:37:42.283Z,6.70
2017-09-24T13:38:46.562Z,5.87
2017-09-24T13:39:51.091Z,7.03
2017-09-24T13:40:56.013Z,6.60
2017-09-24T13:42:00.899Z,6.87
2017-09-24T13:43:05.499Z,7.03
2017-09-24T13:44:10.152Z,5.95
2017-09-24T13:45:15.023Z,6.85
2017-09-24T13:46:20.073Z,7.12
2017-09-24T13:47:24.463Z,6.90
2017-09-24T13:48:30.490Z,8.23
2017-09-24T13:49:35.784Z,7.53
2017-09-24T13:50:41.081Z,6.55
2017-09-24T13:51:46.013Z,7.85
2017-09-24T13:52:49.999Z,7.50
2017-09-24T13:53:54.095Z,7.28
2017-09-24T13:54:57.264Z,7.15
2017-09-24T13:56:01.175Z,9.15
2017-09-24T13:57:06.482Z,7.60
2017-09-24T13:58:11.034Z,7.72
2017-09-24T13:59:15.853Z,7.35
2017-09-24T14:00:20.569Z,7.12
2017-09-24T14:01:25.891Z,6.40
2017-09-24T14:02:30.526Z,6.50
2017-09-24T14:03:35.422Z,6.82
2017-09-24T14:04:39.337Z,7.50
2017-09-24T14:05:41.899Z,3.60
2017-09-24T14:06:45.470Z,5.00
2017-09-24T14:07:48.113Z,4.93
2017-09-24T18:41:07.604Z,36.92
2017-09-24T18:42:10.378Z,36.15
2017-09-24T18:43:13.776Z,34.50
2017-09-24T18:44:16.871Z,36.45
2017-09-24T18:45:19.955Z,35.05
2017-09-24T18:46:23.255Z,35.63
2017-09-24T18:47:26.506Z,34.85
2017-09-24T18:48:30.199Z,35.70
2017-09-24T18:49:34.187Z,33.00
2017-09-24T18:50:37.887Z,33.63
2017-09-24T18:51:42.910Z,35.45
2017-09-24T18:52:45.883Z,34.70
2017-09-24T18:53:49.801Z,33.47
2017-09-24T18:54:54.532Z,33.92
2017-09-24T18:55:58.196Z,32.30
2017-09-24T18:57:01.079Z,33.30
2017-09-24T18:58:04.392Z,31.65
2017-09-24T18:59:07.437Z,31.92
2017-09-24T19:00:11.654Z,33.20
2017-09-24T19:01:15.039Z,31.95
2017-09-24T19:02:19.560Z,32.03
2017-09-24T19:03:24.470Z,30.67
2017-09-24T19:04:27.531Z,31.35
2017-09-24T19:05:30.637Z,30.15
2017-09-24T19:06:34.311Z,31.83
2017-09-24T19:07:37.698Z,31.80
2017-09-24T19:08:40.976Z,30.20
2017-09-24T19:09:44.901Z,31.77
2017-09-24T19:10:47.979Z,30.17
